createdAt,value
2019-03-08T00:01:56.433Z,27
2019-03-08T00:05:02.528Z,27
2019-03-08T00:08:09.572Z,27
2019-03-08T00:11:15.671Z,27
2019-03-08T00:14:21.711Z,27.1
2019-03-08T00:17:27.694Z,27.1
2019-03-08T00:20:33.571Z,27.1
2019-03-08T00:23:39.597Z,27.1
2019-03-08T00:26:45.780Z,27.1
2019-03-08T00:29:52.690Z,27.2
2019-03-08T00:32:58.720Z,27.1
2019-03-08T00:36:04.680Z,27.2
2019-03-08T00:39:10.739Z,27.2
2019-03-08T00:42:16.702Z,27.2
2019-03-08T00:45:22.660Z,27.2
2019-03-08T00:48:28.727Z,27.2
2019-03-08T00:51:35.808Z,27.2
2019-03-08T00:54:41.767Z,27.2
2019-03-08T00:57:47.839Z,27.2
2019-03-08T01:00:53.796Z,27.2
2019-03-08T01:03:59.854Z,27.2
2019-03-08T01:07:05.914Z,27.2
2019-03-08T01:10:11.871Z,27.1
2019-03-08T01:13:18.860Z,27
2019-03-08T01:16:26.660Z,27
2019-03-08T01:19:32.617Z,27
2019-03-08T01:22:38.697Z,27.1
2019-03-08T01:25:44.773Z,27
2019-03-08T01:28:50.804Z,27
2019-03-08T01:31:57.071Z,27
2019-03-08T01:35:04.065Z,27
2019-03-08T01:38:10.037Z,26.9
2019-03-08T01:41:16.072Z,26.9
2019-03-08T01:44:21.993Z,26.9
2019-03-08T01:47:27.975Z,26.9
2019-03-08T01:50:33.954Z,26.8
2019-03-08T01:53:40.221Z,26.8
2019-03-08T01:56:47.103Z,26.8
2019-03-08T01:59:55.828Z,26.8
2019-03-08T02:03:01.890Z,26.8
2019-03-08T02:06:08.053Z,26.8
2019-03-08T02:09:16.320Z,26.7
2019-03-08T02:12:22.197Z,26.7
2019-03-08T02:15:30.821Z,26.7
2019-03-08T02:18:36.801Z,26.7
2019-03-08T02:21:42.764Z,26.6
2019-03-08T02:24:48.638Z,26.6
2019-03-08T02:27:54.886Z,26.6
2019-03-08T02:31:02.180Z,26.4
2019-03-08T02:34:08.236Z,26.4
2019-03-08T02:37:14.109Z,26.5
2019-03-08T02:40:20.008Z,26.3
2019-03-08T02:43:25.905Z,26.3
2019-03-08T02:46:34.635Z,26.3
2019-03-08T02:49:40.899Z,26.4
2019-03-08T02:52:47.129Z,26.1
2019-03-08T02:55:53.027Z,26.3
2019-03-08T02:58:59.088Z,26.2
2019-03-08T03:02:05.051Z,26
2019-03-08T03:05:11.420Z,26
2019-03-08T03:08:17.374Z,26
2019-03-08T03:11:23.335Z,26
2019-03-08T03:14:29.399Z,26
2019-03-08T03:17:35.362Z,26.1
2019-03-08T03:20:41.416Z,25.9
2019-03-08T03:23:47.303Z,25.9
2019-03-08T03:26:54.157Z,25.9
2019-03-08T03:30:00.184Z,25.9
2019-03-08T03:33:06.389Z,25.8
2019-03-08T03:36:12.447Z,25.9
2019-03-08T03:39:18.354Z,25.8
2019-03-08T03:42:24.470Z,25.9
2019-03-08T03:45:30.403Z,25.8
2019-03-08T03:48:37.388Z,25.8
2019-03-08T03:51:43.262Z,25.7
2019-03-08T03:54:49.330Z,25.7
2019-03-08T03:57:55.390Z,25.7
2019-03-08T04:01:01.451Z,25.7
2019-03-08T04:04:07.325Z,25.7
2019-03-08T04:07:16.235Z,25.7
2019-03-08T04:10:23.631Z,25.7
2019-03-08T04:13:29.566Z,25.7
2019-03-08T04:16:35.545Z,25.6
2019-03-08T04:19:41.714Z,25.6
2019-03-08T04:22:47.884Z,25.7
2019-03-08T04:25:53.839Z,25.5
2019-03-08T04:28:59.996Z,25.6
2019-03-08T04:32:06.979Z,25.4
2019-03-08T04:35:12.946Z,25.4
2019-03-08T04:38:19.002Z,25.3
2019-03-08T04:41:24.961Z,25.2
2019-03-08T04:44:31.030Z,25.2
2019-03-08T04:47:37.187Z,25.1
2019-03-08T04:50:43.255Z,25.1
2019-03-08T04:53:50.520Z,25.1
2019-03-08T04:56:56.504Z,25.1
2019-03-08T05:00:02.472Z,24.9
2019-03-08T05:03:08.518Z,25
2019-03-08T05:06:14.583Z,24.9
2019-03-08T05:09:20.543Z,24.9
2019-03-08T05:12:26.806Z,24.9
2019-03-08T05:15:35.530Z,24.9
2019-03-08T05:18:41.493Z,24.8
2019-03-08T05:21:47.460Z,24.8
2019-03-08T05:24:56.287Z,24.8
2019-03-08T05:28:02.589Z,24.9
2019-03-08T05:31:10.664Z,24.9
2019-03-08T05:34:16.934Z,24.8
2019-03-08T05:37:22.935Z,24.9
2019-03-08T05:40:28.941Z,24.9
2019-03-08T05:43:34.908Z,25.7
2019-03-08T05:46:40.962Z,25.9
2019-03-08T05:49:47.682Z,25.4
2019-03-08T05:52:53.596Z,25.3
2019-03-08T05:55:59.864Z,25.2
2019-03-08T05:59:06.156Z,25.6
2019-03-08T06:02:12.206Z,25.4
2019-03-08T06:05:18.264Z,26
2019-03-08T06:08:24.327Z,25.4
2019-03-08T06:11:30.490Z,25.4
2019-03-08T06:14:36.365Z,25.2
2019-03-08T06:17:42.399Z,25.1
2019-03-08T06:20:49.894Z,25.4
2019-03-08T06:23:55.867Z,25.5
2019-03-08T06:27:01.849Z,25
2019-03-08T06:30:07.877Z,25.3
2019-03-08T06:33:13.909Z,26.1
2019-03-08T06:36:19.959Z,25.5
2019-03-08T06:39:25.971Z,25.1
2019-03-08T06:42:31.928Z,24.8
2019-03-08T06:45:38.088Z,25.2
2019-03-08T06:48:44.252Z,25.3
2019-03-08T06:51:50.732Z,25.8
2019-03-08T06:54:56.653Z,26.1
2019-03-08T06:58:02.691Z,25.6
2019-03-08T07:01:08.704Z,26.6
2019-03-08T07:04:14.667Z,25.6
2019-03-08T07:07:20.721Z,25
2019-03-08T07:10:26.881Z,25
2019-03-08T07:13:34.388Z,24.9
2019-03-08T07:16:40.442Z,25.2
2019-03-08T07:19:46.509Z,24.9
2019-03-08T07:22:52.577Z,24.9
2019-03-08T07:25:58.630Z,25.1
2019-03-08T07:29:05.014Z,25.1
2019-03-08T07:32:11.070Z,24.6
2019-03-08T07:35:19.581Z,24.9
2019-03-08T07:38:25.454Z,24.5
2019-03-08T07:41:31.506Z,25.5
2019-03-08T07:44:38.895Z,24.4
2019-03-08T07:47:44.770Z,24.1
2019-03-08T07:50:50.915Z,24
2019-03-08T07:53:56.996Z,24.3
2019-03-08T07:57:04.165Z,24.3
2019-03-08T08:00:10.044Z,24.3
2019-03-08T08:03:16.186Z,24.5
2019-03-08T08:06:22.359Z,24.2
2019-03-08T08:09:28.349Z,24.2
2019-03-08T08:12:34.484Z,24.1
2019-03-08T08:15:40.754Z,24
2019-03-08T08:18:49.171Z,24
2019-03-08T08:21:56.258Z,24
2019-03-08T08:25:02.133Z,24.1
2019-03-08T08:28:08.278Z,23.9
2019-03-08T08:31:15.964Z,24.1
2019-03-08T08:34:22.651Z,23.9
2019-03-08T08:37:28.803Z,23.9
2019-03-08T08:40:34.871Z,23.8
2019-03-08T08:43:40.798Z,23.9
2019-03-08T08:46:46.799Z,23.9
2019-03-08T08:49:56.841Z,24.2
2019-03-08T08:53:03.323Z,24.2
2019-03-08T08:56:09.483Z,24.3
2019-03-08T08:59:18.180Z,24.7
2019-03-08T09:02:24.376Z,24.4
2019-03-08T09:05:31.576Z,24.4
2019-03-08T09:08:37.617Z,24.3
2019-03-08T09:11:52.384Z,24.4
2019-03-08T09:14:59.061Z,24.4
2019-03-08T09:18:06.477Z,24.4
2019-03-08T09:21:12.534Z,24.5
2019-03-08T09:24:21.354Z,24.6
2019-03-08T09:27:27.410Z,24.5
2019-03-08T09:30:33.382Z,24.5
2019-03-08T09:33:39.434Z,24.5
2019-03-08T09:36:45.633Z,24.4
2019-03-08T09:39:52.791Z,24.5
2019-03-08T09:42:58.782Z,24.4
2019-03-08T09:46:05.327Z,24.3
2019-03-08T09:49:11.281Z,24.6
2019-03-08T09:52:20.722Z,24.6
2019-03-08T09:55:26.683Z,24.6
2019-03-08T09:58:32.741Z,24.8
2019-03-08T10:01:38.645Z,24.6
2019-03-08T10:04:44.564Z,24.7
2019-03-08T10:07:50.519Z,24.6
2019-03-08T10:10:56.461Z,25
2019-03-08T10:14:03.672Z,24.9
2019-03-08T10:17:09.756Z,24.7
2019-03-08T10:20:15.725Z,24.7
2019-03-08T10:23:21.713Z,24.7
2019-03-08T10:26:27.707Z,24.5
2019-03-08T10:29:34.206Z,24.5
2019-03-08T10:32:40.156Z,24.6
2019-03-08T10:35:46.711Z,24.8
2019-03-08T10:38:52.679Z,24.6
2019-03-08T10:41:58.632Z,24.7
2019-03-08T10:45:04.598Z,24.8
2019-03-08T10:48:10.555Z,24.7
2019-03-08T10:51:16.486Z,25.1
2019-03-08T10:54:22.468Z,25.1
2019-03-08T10:57:28.755Z,25.2
2019-03-08T11:00:34.696Z,26.7
2019-03-08T11:03:40.758Z,25
2019-03-08T11:06:46.821Z,25
2019-03-08T11:09:55.240Z,25
2019-03-08T11:13:01.382Z,24.9
2019-03-08T11:16:07.465Z,24.8
2019-03-08T11:19:14.554Z,24.8
2019-03-08T11:22:20.613Z,24.8
2019-03-08T11:25:35.687Z,25.2
2019-03-08T11:28:41.612Z,25.2
2019-03-08T11:31:48.934Z,25.6
2019-03-08T11:34:54.863Z,25.2
2019-03-08T11:38:00.858Z,25.1
2019-03-08T11:41:06.937Z,25.1
2019-03-08T11:44:16.566Z,25.2
2019-03-08T11:47:22.434Z,25.1
2019-03-08T11:50:28.491Z,25
2019-03-08T11:53:34.757Z,25.3
2019-03-08T11:56:40.682Z,25.1
2019-03-08T11:59:46.640Z,25.2
2019-03-08T12:02:52.733Z,25.3
2019-03-08T12:06:00.983Z,25.1
2019-03-08T12:09:07.115Z,25
2019-03-08T12:12:13.098Z,25
2019-03-08T12:15:19.132Z,24.9
2019-03-08T12:18:25.101Z,25
2019-03-08T12:21:31.160Z,24.9
2019-03-08T12:24:37.046Z,24.9
2019-03-08T12:27:44.412Z,24.8
2019-03-08T12:30:50.354Z,24.9
2019-03-08T12:33:56.537Z,24.7
2019-03-08T12:37:02.683Z,24.8
2019-03-08T12:40:08.655Z,24.7
2019-03-08T12:43:14.711Z,24.6
2019-03-08T12:46:21.078Z,24.6
2019-03-08T12:49:28.158Z,24.7
2019-03-08T12:52:34.120Z,24.6
2019-03-08T12:55:42.861Z,24.5
2019-03-08T12:58:48.913Z,24.6
2019-03-08T13:01:57.099Z,24.9
2019-03-08T13:05:05.636Z,24.6
2019-03-08T13:08:11.595Z,24.5
2019-03-08T13:11:17.778Z,24.5
2019-03-08T13:14:44.430Z,24.4
2019-03-08T13:17:54.154Z,24.5
2019-03-08T13:21:00.318Z,24.3
2019-03-08T13:24:06.283Z,24.4
2019-03-08T13:27:12.415Z,24.3
2019-03-08T13:30:18.417Z,24.3
2019-03-08T13:33:25.462Z,24.4
2019-03-08T13:36:31.452Z,25
2019-03-08T13:39:38.736Z,24.6
2019-03-08T13:42:44.709Z,24.3
2019-03-08T13:45:50.769Z,24.5
2019-03-08T13:48:56.924Z,24.3
2019-03-08T13:52:02.884Z,24.2
2019-03-08T13:55:10.486Z,24.1
2019-03-08T13:58:16.748Z,24.1
2019-03-08T14:01:23.978Z,24
2019-03-08T14:04:29.868Z,24.1
2019-03-08T14:07:35.964Z,23.9
2019-03-08T14:10:42.021Z,24
2019-03-08T14:13:47.976Z,23.9
2019-03-08T14:16:53.937Z,24
2019-03-08T14:20:00.126Z,24.3
2019-03-08T14:23:06.882Z,23.9
2019-03-08T14:26:12.840Z,24.2
2019-03-08T14:29:22.184Z,24.2
2019-03-08T14:32:29.263Z,24.1
2019-03-08T14:35:37.988Z,24.1
2019-03-08T14:38:44.055Z,23.7
2019-03-08T14:41:50.218Z,23.8
2019-03-08T14:44:56.205Z,23.9
2019-03-08T14:48:11.662Z,23.5
2019-03-08T14:51:17.666Z,23.7
2019-03-08T14:54:23.683Z,23.6
2019-03-08T14:57:29.870Z,23.6
2019-03-08T15:00:36.454Z,23.5
2019-03-08T15:03:44.534Z,23.4
2019-03-08T15:06:50.595Z,23.5
2019-03-08T15:09:56.536Z,23.5
2019-03-08T15:13:10.913Z,23.4
2019-03-08T15:16:16.875Z,23.4
2019-03-08T15:19:25.878Z,23.4
2019-03-08T15:22:39.387Z,23.6
2019-03-08T15:25:50.477Z,23.5
2019-03-08T15:28:56.584Z,23.6
2019-03-08T15:32:02.647Z,23.8
2019-03-08T15:35:08.605Z,23.4
2019-03-08T15:38:14.594Z,23.5
2019-03-08T15:41:26.341Z,23.5
2019-03-08T15:44:32.412Z,23.4
2019-03-08T15:47:38.371Z,23.5
2019-03-08T15:50:48.080Z,23.5
2019-03-08T15:53:55.110Z,23.5
2019-03-08T15:57:01.061Z,23.4
2019-03-08T16:00:07.331Z,23.6
2019-03-08T16:03:13.390Z,23.6
2019-03-08T16:06:20.476Z,23.3
2019-03-08T16:09:26.365Z,23.4
2019-03-08T16:12:32.803Z,23.4
2019-03-08T16:15:39.434Z,23.4
2019-03-08T16:18:48.897Z,23.3
2019-03-08T16:21:54.885Z,23.3
2019-03-08T16:25:07.734Z,23.3
2019-03-08T16:28:13.871Z,23.2
2019-03-08T16:31:25.501Z,23.2
2019-03-08T16:34:34.393Z,23.2
2019-03-08T16:37:40.561Z,23.3
2019-03-08T16:40:46.561Z,23.1
2019-03-08T16:43:54.218Z,23.2
2019-03-08T16:47:00.179Z,23.2
2019-03-08T16:50:06.145Z,23
2019-03-08T16:53:12.194Z,23.2
2019-03-08T16:56:19.281Z,23.1
2019-03-08T16:59:25.247Z,22.9
2019-03-08T17:02:31.170Z,23
2019-03-08T17:05:37.159Z,22.9
2019-03-08T17:08:43.257Z,22.9
2019-03-08T17:11:49.334Z,23
2019-03-08T17:14:55.242Z,22.8
2019-03-08T17:18:01.205Z,22.9
2019-03-08T17:21:07.275Z,22.8
2019-03-08T17:24:13.329Z,22.8
2019-03-08T17:27:19.198Z,22.7
2019-03-08T17:30:25.141Z,22.7
2019-03-08T17:33:31.306Z,22.7
2019-03-08T17:36:37.367Z,22.7
2019-03-08T17:39:43.527Z,22.7
2019-03-08T17:42:49.796Z,22.7
2019-03-08T17:45:55.758Z,22.7
2019-03-08T17:49:01.718Z,22.7
2019-03-08T17:52:07.994Z,22.7
2019-03-08T17:55:14.866Z,22.7
2019-03-08T17:58:20.936Z,22.5
2019-03-08T18:01:28.532Z,22.7
2019-03-08T18:04:34.889Z,22.7
2019-03-08T18:07:42.082Z,22.7
2019-03-08T18:10:48.253Z,22.8
2019-03-08T18:13:54.200Z,22.8
2019-03-08T18:17:00.076Z,22.9
2019-03-08T18:20:07.147Z,22.8
2019-03-08T18:23:13.222Z,22.8
2019-03-08T18:26:19.170Z,22.8
2019-03-08T18:29:25.140Z,22.8
2019-03-08T18:32:31.499Z,22.8
2019-03-08T18:35:37.479Z,22.8
2019-03-08T18:38:43.418Z,22.8
2019-03-08T18:41:49.483Z,22.8
2019-03-08T18:44:55.440Z,22.9
2019-03-08T18:48:01.511Z,22.9
2019-03-08T18:51:07.474Z,23
2019-03-08T18:54:16.695Z,23
2019-03-08T18:57:22.859Z,23
2019-03-08T19:00:28.788Z,23
2019-03-08T19:03:34.777Z,23
2019-03-08T19:06:40.847Z,23.1
2019-03-08T19:09:46.800Z,23.1
2019-03-08T19:12:52.675Z,23.2
2019-03-08T19:15:58.616Z,23.2
2019-03-08T19:19:04.565Z,23.3
2019-03-08T19:22:10.639Z,23.4
2019-03-08T19:25:28.784Z,23.5
2019-03-08T19:28:34.669Z,23.5
2019-03-08T19:31:40.709Z,23.5
2019-03-08T19:34:48.504Z,23.5
2019-03-08T19:37:54.470Z,23.6
2019-03-08T19:41:00.424Z,23.6
2019-03-08T19:44:06.298Z,23.5
2019-03-08T19:47:13.265Z,23.7
2019-03-08T19:50:19.254Z,23.6
2019-03-08T19:53:25.285Z,23.6
2019-03-08T19:56:31.159Z,23.7
2019-03-08T19:59:37.106Z,23.7
2019-03-08T20:02:43.187Z,23.7
2019-03-08T20:05:49.144Z,23.8
2019-03-08T20:08:55.089Z,23.7
2019-03-08T20:12:04.220Z,23.8
2019-03-08T20:15:10.055Z,23.9
2019-03-08T20:18:19.010Z,23.8
2019-03-08T20:21:24.969Z,23.9
2019-03-08T20:24:30.930Z,23.9
2019-03-08T20:27:38.836Z,23.9
2019-03-08T20:30:44.789Z,24
2019-03-08T20:33:50.865Z,24.1
2019-03-08T20:36:57.027Z,24
2019-03-08T20:40:02.983Z,24.1
2019-03-08T20:43:08.937Z,24
2019-03-08T20:46:14.914Z,24.1
2019-03-08T20:49:20.856Z,24
2019-03-08T20:52:26.824Z,24.1
2019-03-08T20:55:35.547Z,24.1
2019-03-08T20:58:41.804Z,24.3
2019-03-08T21:01:49.200Z,24.2
2019-03-08T21:04:55.262Z,24.3
2019-03-08T21:08:01.739Z,24.3
2019-03-08T21:11:08.202Z,24.3
2019-03-08T21:14:14.165Z,24.4
2019-03-08T21:17:20.096Z,24.4
2019-03-08T21:20:26.088Z,24.4
2019-03-08T21:23:33.285Z,24.5
2019-03-08T21:26:39.149Z,24.5
2019-03-08T21:29:45.185Z,24.6
2019-03-08T21:32:51.246Z,24.6
2019-03-08T21:36:00.574Z,24.6
2019-03-08T21:39:06.749Z,24.5
2019-03-08T21:42:12.711Z,24.5
2019-03-08T21:45:18.669Z,24.5
2019-03-08T21:48:24.644Z,24.5
2019-03-08T21:51:33.287Z,24.5
2019-03-08T21:54:39.337Z,24.6
2019-03-08T21:57:45.388Z,24.6
2019-03-08T22:00:51.345Z,24.6
2019-03-08T22:03:57.206Z,24.7
2019-03-08T22:07:03.577Z,24.7
2019-03-08T22:10:09.993Z,24.8
2019-03-08T22:13:15.969Z,24.9
2019-03-08T22:16:21.830Z,24.9
2019-03-08T22:19:27.926Z,24.9
2019-03-08T22:22:36.856Z,25
2019-03-08T22:25:43.005Z,25
2019-03-08T22:28:48.972Z,25.1
2019-03-08T22:31:54.931Z,25.1
2019-03-08T22:35:02.009Z,25.2
2019-03-08T22:38:08.072Z,25.2
2019-03-08T22:41:14.139Z,25.2
2019-03-08T22:44:20.099Z,25.3
2019-03-08T22:47:26.051Z,25.3
2019-03-08T22:50:34.553Z,25.3
2019-03-08T22:53:40.589Z,25.4
2019-03-08T22:56:46.502Z,25.4
2019-03-08T22:59:52.456Z,25.4
2019-03-08T23:02:58.334Z,25.4
2019-03-08T23:06:04.586Z,25.5
2019-03-08T23:09:10.637Z,25.5
2019-03-08T23:12:16.706Z,25.6
2019-03-08T23:15:22.669Z,25.6
2019-03-08T23:18:28.867Z,25.6
2019-03-08T23:21:35.922Z,25.6
2019-03-08T23:24:41.929Z,25.6
2019-03-08T23:27:47.933Z,25.7
2019-03-08T23:30:54.201Z,25.7
2019-03-08T23:34:03.845Z,25.7
2019-03-08T23:37:09.905Z,25.7
2019-03-08T23:40:15.967Z,25.7
2019-03-08T23:43:22.234Z,25.8
2019-03-08T23:46:29.526Z,25.8
2019-03-08T23:49:35.399Z,25.8
2019-03-08T23:52:41.345Z,25.8
2019-03-08T23:55:47.407Z,25.9
2019-03-08T23:58:54.078Z,25.9
